Time;durP1;ratioP1;P1;durP2;ratioP2;P2;SDS_P1;SDS_P2;PMS_P1;PMS_P2;Temp;Humidity;BMP_temperature;BMP_pressure;BME280_temperature;BME280_humidity;BME280_pressure;Samples;Min_cycle;Max_cycle;Signal;HPM_P1;HPM_P2
2020/12/30 00:02:20;;;;;;;;;19.00;16.75;;;;;12.83;56.63;97068.53;5797925;22;103917;-82
2020/12/30 00:04:53;;;;;;;;;16.50;14.75;;;;;12.78;56.25;97062.25;5695398;22;104617;-81
2020/12/30 00:07:20;;;;;;;;;17.00;16.00;;;;;12.78;57.01;97083.97;5806533;22;103037;-81
2020/12/30 00:09:50;;;;;;;;;16.00;15.25;;;;;12.80;56.68;97088.03;5724527;22;104023;-82
2020/12/30 00:12:17;;;;;;;;;18.00;14.00;;;;;12.80;56.43;97081.78;5727751;22;102836;-82
2020/12/30 00:15:01;;;;;;;;;21.00;18.50;;;;;12.74;56.33;97071.97;5756178;22;102779;-81
2020/12/30 00:17:32;;;;;;;;;17.50;17.00;;;;;12.76;56.82;97042.69;5791546;22;102828;-82
2020/12/30 00:20:06;;;;;;;;;14.75;14.25;;;;;12.71;56.90;97034.50;5723823;22;109167;-81
2020/12/30 00:22:58;;;;;;;;;18.00;15.00;;;;;12.72;56.69;97036.97;5600414;22;103220;-81
2020/12/30 00:25:51;;;;;;;;;16.75;15.75;;;;;12.71;56.46;97061.59;5520980;22;103740;-81
2020/12/30 00:28:25;;;;;;;;;15.75;14.00;;;;;12.67;56.36;97053.16;5682219;22;108370;-81
2020/12/30 00:31:00;;;;;;;;;19.00;16.75;;;;;12.74;56.44;97061.13;5728268;22;103485;-82
2020/12/30 00:33:29;;;;;;;;;19.75;17.00;;;;;12.70;55.99;97060.78;5784895;22;102843;-81
2020/12/30 00:36:11;;;;;;;;;13.00;11.75;;;;;12.69;56.22;97069.19;5782288;22;102935;-81
2020/12/30 00:38:44;;;;;;;;;20.75;17.00;;;;;12.63;56.15;97065.59;5585918;22;103106;-82
2020/12/30 00:41:21;;;;;;;;;17.00;15.75;;;;;12.65;56.53;97063.47;5696323;22;105674;-81
2020/12/30 00:44:09;;;;;;;;;17.25;15.75;;;;;12.66;56.46;97070.50;5564272;22;104147;-82
2020/12/30 00:47:08;;;;;;;;;16.25;15.00;;;;;12.60;56.69;97068.81;5547320;22;102903;-82
2020/12/30 00:49:49;;;;;;;;;13.00;11.50;;;;;12.61;55.82;97065.00;5569393;22;102945;-82
2020/12/30 00:52:36;;;;;;;;;18.75;15.75;;;;;12.65;56.00;97062.63;5753642;22;105059;-82
2020/12/30 00:55:13;;;;;;;;;17.00;16.00;;;;;12.58;55.88;97064.69;5591019;23;103050;-81
2020/12/30 00:57:50;;;;;;;;;16.00;13.75;;;;;12.59;55.40;97096.16;5728958;22;102871;-81
2020/12/30 01:00:53;;;;;;;;;13.25;12.25;;;;;12.55;55.57;97040.81;5511938;23;104496;-81
2020/12/30 01:03:23;;;;;;;;;17.00;15.50;;;;;12.55;55.72;97057.06;5606049;22;104270;-82
2020/12/30 01:05:56;;;;;;;;;16.50;14.75;;;;;12.51;56.53;97049.44;5660199;23;102858;-81
2020/12/30 01:08:31;;;;;;;;;13.00;12.00;;;;;12.51;55.74;97035.91;5624649;22;102795;-81
2020/12/30 01:11:04;;;;;;;;;16.75;15.00;;;;;12.53;55.50;97044.59;5585689;22;102844;-81
2020/12/30 01:13:43;;;;;;;;;18.50;15.50;;;;;12.47;56.14;97040.16;5649804;22;109300;-81
2020/12/30 01:16:21;;;;;;;;;15.25;12.50;;;;;12.45;55.46;97047.72;5593529;22;103150;-81
2020/12/30 01:19:06;;;;;;;;;17.75;14.25;;;;;12.49;56.03;97058.88;5641709;22;104580;-81
2020/12/30 01:21:44;;;;;;;;;13.50;12.50;;;;;12.44;56.22;97051.50;5571991;22;103042;-82
2020/12/30 01:24:25;;;;;;;;;13.00;13.00;;;;;12.44;55.98;97058.81;5652929;22;103992;-81
2020/12/30 01:30:24;;;;;;;;;15.25;12.25;;;;;12.46;56.21;97062.13;5596322;22;103594;-81
2020/12/30 01:33:11;;;;;;;;;14.25;11.00;;;;;12.44;55.57;97056.94;5559785;22;102925;-81
2020/12/30 01:35:52;;;;;;;;;11.50;9.25;;;;;12.43;55.60;97063.41;5486067;22;110458;-81
2020/12/30 01:38:59;;;;;;;;;15.25;12.75;;;;;12.39;55.89;97054.16;5540957;22;102994;-81
2020/12/30 01:41:41;;;;;;;;;12.25;10.25;;;;;12.40;55.40;97054.97;5658494;22;103061;-81
2020/12/30 01:44:35;;;;;;;;;13.00;11.00;;;;;12.38;55.66;97052.50;5535020;22;104744;-81
2020/12/30 01:47:30;;;;;;;;;12.00;10.75;;;;;12.38;55.91;97052.50;5524306;22;108752;-81
2020/12/30 01:50:33;;;;;;;;;13.00;10.25;;;;;12.35;55.98;97063.84;5506464;22;103129;-81
2020/12/30 01:53:42;;;;;;;;;13.00;11.75;;;;;12.34;55.85;97070.34;5364311;23;103387;-81
2020/12/30 01:56:49;;;;;;;;;11.00;10.75;;;;;12.36;55.17;97065.50;5505980;22;103784;-81
2020/12/30 01:59:29;;;;;;;;;11.25;8.25;;;;;12.34;55.49;97056.78;5412437;22;108384;-81
2020/12/30 02:02:26;;;;;;;;;14.50;12.50;;;;;12.34;55.28;97067.63;5471801;22;103306;-81
2020/12/30 02:05:34;;;;;;;;;13.25;11.00;;;;;12.32;55.63;97069.78;5549034;22;103038;-81
2020/12/30 02:08:54;;;;;;;;;;;;;;;;;;;;;
2020/12/30 02:12:16;;;;;;;;;12.00;9.25;;;;;12.32;54.95;97072.50;5285237;23;109293;-81
2020/12/30 02:18:59;;;;;;;;;13.00;10.00;;;;;12.29;55.57;97075.69;5358443;23;103336;-81
2020/12/30 02:21:50;;;;;;;;;9.00;8.50;;;;;12.31;55.23;97056.47;5344866;23;102878;-82
2020/12/30 02:24:45;;;;;;;;;7.25;7.00;;;;;12.24;55.01;97037.69;5359445;23;104319;-82
2020/12/30 02:27:47;;;;;;;;;;;;;;;;;;;;;
2020/12/30 02:31:14;;;;;;;;;9.25;7.50;;;;;12.25;54.84;97052.84;5287978;23;103359;-82
2020/12/30 02:51:31;;;;;;;;;9.00;7.25;;;;;12.16;55.73;97029.16;4418938;28;103929;-83
2020/12/30 02:54:25;;;;;;;;;9.25;7.25;;;;;12.16;55.06;97021.84;4409110;28;103507;-83
2020/12/30 03:01:11;;;;;;;;;;;;;;;;;;;;;
2020/12/30 03:10:17;;;;;;;;;;;;;;;;;;;;;
2020/12/30 03:17:22;;;;;;;;;11.00;8.00;;;;;12.11;55.56;97019.09;3981385;29;6163184;-82
2020/12/30 03:54:05;;;;;;;;;;;;;;;;;;;;;
2020/12/30 04:03:59;;;;;;;;;4.40;4.40;;;;;12.12;55.45;97028.81;4994387;23;4582960;-82
2020/12/30 04:07:56;;;;;;;;;7.25;6.75;;;;;12.12;55.41;97020.69;5459803;23;108833;-82
2020/12/30 04:21:48;;;;;;;;;8.25;7.50;;;;;12.13;55.39;97033.19;5660868;21;139562;-83
2020/12/30 04:28:10;;;;;;;;;4.60;4.00;;;;;12.12;54.68;97047.78;4307798;29;1111392;-80
2020/12/30 04:36:10;;;;;;;;;3.75;3.25;;;;;12.14;55.09;97031.28;4427464;28;104194;-82
2020/12/30 04:39:42;;;;;;;;;4.00;4.00;;;;;12.12;54.18;97031.53;4260205;29;8880803;-83
2020/12/30 04:56:30;;;;;;;;;6.25;5.75;;;;;12.08;54.55;97030.41;4598986;21;24239535;-82
2020/12/30 05:27:57;;;;;;;;;;;;;;;;;;;;;
2020/12/30 05:48:04;;;;;;;;;5.00;5.00;;;;;11.94;54.84;97067.84;3758185;27;25669748;-82
2020/12/30 06:24:58;;;;;;;;;;;;;;;;;;;;;
2020/12/30 06:28:21;;;;;;;;;6.25;5.00;;;;;11.90;55.39;97065.88;3492665;27;34190001;-82
2020/12/30 06:45:27;;;;;;;;;5.20;4.40;;;;;11.87;54.70;97079.91;3689657;27;25551964;-82
2020/12/30 06:48:48;;;;;;;;;1.75;1.00;;;;;11.89;54.62;97070.47;1563348;30;10257289;-82
2020/12/30 07:23:49;;;;;;;;;5.00;4.00;;;;;11.91;55.03;97090.00;6070816;21;1099127;-80
2020/12/30 07:26:34;;;;;;;;;4.00;3.00;;;;;11.94;54.37;97094.09;5790126;22;102921;-80
2020/12/30 07:29:38;;;;;;;;;3.00;3.00;;;;;11.94;54.75;97085.97;5992363;22;103970;-81
2020/12/30 07:32:21;;;;;;;;;3.50;3.00;;;;;11.97;54.39;97072.78;5788329;22;102895;-83
2020/12/30 07:34:59;;;;;;;;;4.00;3.00;;;;;11.91;54.87;97075.66;5843249;22;102995;-82
2020/12/30 07:37:29;;;;;;;;;3.25;3.25;;;;;11.92;54.75;97074.59;5934674;22;102807;-82
2020/12/30 07:39:56;;;;;;;;;2.25;2.25;;;;;11.97;54.64;97093.63;5974805;22;105985;-83
2020/12/30 07:42:35;;;;;;;;;3.00;2.50;;;;;11.91;54.89;97072.94;6004468;22;102851;-83
2020/12/30 07:45:49;;;;;;;;;2.00;2.00;;;;;11.94;54.63;97064.31;5522001;22;102949;-84
2020/12/30 07:48:43;;;;;;;;;;;;;;;;;;;;;
2020/12/30 07:51:20;;;;;;;;;4.50;4.00;;;;;11.93;54.56;97077.03;5289657;23;2151367;-83
2020/12/30 07:53:58;;;;;;;;;3.00;3.00;;;;;11.94;54.23;97080.56;5569160;22;102865;-83
2020/12/30 07:56:33;;;;;;;;;2.00;2.00;;;;;11.93;54.07;97077.03;5809306;22;102786;-84
2020/12/30 07:59:00;;;;;;;;;3.50;3.25;;;;;11.87;54.57;97066.38;5780120;22;103113;-83
2020/12/30 08:01:33;;;;;;;;;3.50;2.00;;;;;11.88;54.76;97089.69;5908567;22;108632;-83
2020/12/30 08:04:12;;;;;;;;;3.50;3.00;;;;;11.90;54.59;97068.59;5814574;22;103335;-83
2020/12/30 08:06:55;;;;;;;;;5.00;4.00;;;;;11.94;54.38;97083.28;5661261;22;102842;-83
2020/12/30 08:10:09;;;;;;;;;6.00;4.00;;;;;11.91;54.50;97067.53;4996443;23;5389055;-83
2020/12/30 09:38:57;;;;;;;;;3.00;3.00;;;;;11.84;54.59;97110.22;4923653;21;19017001;-83
2020/12/30 12:46:58;;;;;;;;;18.75;18.00;;;;;11.79;57.00;97110.94;5820286;21;2814617;-81
2020/12/30 13:03:57;;;;;;;;;22.00;20.00;;;;;11.82;56.27;97125.88;4879003;27;103089;-81
2020/12/30 13:06:33;;;;;;;;;20.75;17.00;;;;;11.80;56.58;97117.97;4823017;28;103127;-80
2020/12/30 13:09:02;;;;;;;;;21.50;17.25;;;;;11.81;56.08;97124.22;4808461;28;103665;-81
2020/12/30 13:11:32;;;;;;;;;12.75;7.50;;;;;11.81;56.49;97137.75;4737272;28;103286;-81
2020/12/30 13:14:00;;;;;;;;;20.75;16.75;;;;;11.82;56.54;97129.41;4813641;28;102973;-81
2020/12/30 13:16:27;;;;;;;;;17.75;15.25;;;;;11.82;55.88;97159.19;4850036;28;103415;-81
2020/12/30 13:19:19;;;;;;;;;13.75;13.25;;;;;11.86;56.24;97137.84;4758301;28;105752;-81
2020/12/30 13:22:00;;;;;;;;;18.25;15.75;;;;;11.83;56.30;97160.84;4770548;28;102717;-82
2020/12/30 13:25:18;;;;;;;;;;;;;;;;;;;;;
2020/12/30 13:31:59;;;;;;;;;18.50;16.25;;;;;11.87;56.29;97139.50;3800099;30;5851963;-81
2020/12/30 13:34:53;;;;;;;;;16.75;14.75;;;;;11.83;56.24;97120.22;4263437;29;933270;-81
2020/12/30 13:37:37;;;;;;;;;21.00;15.25;;;;;11.88;56.03;97160.09;4409784;29;104301;-81
2020/12/30 13:43:45;;;;;;;;;21.25;14.75;;;;;11.90;55.66;97141.72;4424045;28;103938;-82
2020/12/30 13:46:55;;;;;;;;;;;;;;;;;;;;;
2020/12/30 13:53:07;;;;;;;;;16.00;14.00;;;;;11.91;55.81;97144.19;1511964;30;10467454;-81
2020/12/30 14:06:32;;;;;;;;;;;;;;;;;;;;;
2020/12/30 14:43:12;;;;;;;;;14.50;14.50;;;;;12.99;59.75;97169.94;4751864;27;102407;-82
2020/12/30 14:46:02;;;;;;;;;14.00;13.75;;;;;12.93;61.34;97138.38;4568516;28;103540;-81
2020/12/30 14:48:34;;;;;;;;;14.75;13.50;;;;;12.90;59.85;97156.00;4600133;28;104100;-82
2020/12/30 14:51:45;;;;;;;;;;;;;;;;;;;;;
2020/12/30 14:54:23;;;;;;;;;16.50;13.50;;;;;12.96;59.24;97154.19;4468521;28;102427;-82
2020/12/30 14:57:30;;;;;;;;;;;;;;;;;;;;;
2020/12/30 15:05:07;;;;;;;;;14.00;14.00;;;;;12.88;57.23;97176.28;1298056;29;10399054;-82
2020/12/30 15:18:17;;;;;;;;;17.50;15.75;;;;;12.75;57.32;97199.16;5895718;21;7167058;-83
2020/12/30 15:20:47;;;;;;;;;13.00;11.75;;;;;12.73;57.48;97205.94;6173742;22;102374;-82
2020/12/30 15:23:18;;;;;;;;;12.50;11.75;;;;;12.70;57.29;97207.22;6085546;22;108297;-82
2020/12/30 15:25:45;;;;;;;;;15.00;13.50;;;;;12.65;57.71;97196.34;5982206;22;102304;-81
2020/12/30 15:28:12;;;;;;;;;16.25;15.00;;;;;12.67;56.79;97201.50;5976393;22;102360;-81
2020/12/30 15:30:51;;;;;;;;;14.25;12.00;;;;;12.64;56.94;97219.09;6042399;22;102367;-82
2020/12/30 15:33:18;;;;;;;;;19.75;15.50;;;;;12.63;57.02;97219.31;5950349;22;107927;-81
2020/12/30 15:35:45;;;;;;;;;15.00;15.00;;;;;12.60;56.92;97236.94;6107322;22;103697;-82
2020/12/30 15:38:12;;;;;;;;;12.75;12.50;;;;;12.57;57.07;97220.31;6141841;22;102340;-82
2020/12/30 15:40:38;;;;;;;;;18.75;14.25;;;;;12.58;56.27;97230.91;6131163;22;102354;-81
2020/12/30 15:43:05;;;;;;;;;20.50;15.75;;;;;12.56;56.80;97243.91;6144909;22;104329;-81
2020/12/30 15:45:32;;;;;;;;;17.00;14.00;;;;;12.55;56.58;97241.44;6100667;22;102388;-80
2020/12/30 15:47:59;;;;;;;;;18.00;16.00;;;;;12.51;56.18;97225.69;6057587;22;101988;-80
2020/12/30 15:50:26;;;;;;;;;18.25;15.00;;;;;12.52;56.75;97240.84;6105203;22;102392;-80
2020/12/30 15:52:55;;;;;;;;;21.00;17.00;;;;;12.50;56.14;97236.75;6128306;22;103687;-80
2020/12/30 15:55:22;;;;;;;;;19.50;18.00;;;;;12.47;56.05;97224.50;6104585;22;102129;-80
2020/12/30 15:57:53;;;;;;;;;27.50;20.00;;;;;12.50;55.64;97234.88;6104677;22;102354;-80
2020/12/30 16:00:20;;;;;;;;;21.50;16.25;;;;;12.47;55.66;97235.34;6105063;22;102254;-81
2020/12/30 16:02:52;;;;;;;;;23.00;20.75;;;;;12.41;55.85;97225.50;5992566;22;103672;-80
2020/12/30 16:05:26;;;;;;;;;22.50;20.00;;;;;12.43;56.23;97244.22;6025701;22;102425;-81
2020/12/30 16:07:58;;;;;;;;;21.00;17.75;;;;;12.41;56.38;97241.78;6069305;22;102297;-80
2020/12/30 16:10:25;;;;;;;;;28.50;19.50;;;;;12.38;56.56;97250.38;6082667;22;104166;-81
2020/12/30 16:12:52;;;;;;;;;19.25;18.00;;;;;12.37;55.90;97262.31;6031576;22;103765;-80
2020/12/30 16:15:18;;;;;;;;;22.25;18.00;;;;;12.41;55.73;97278.91;6097791;22;102499;-81
2020/12/30 16:17:45;;;;;;;;;18.75;16.75;;;;;12.34;55.56;97257.34;6112110;22;102303;-80
2020/12/30 16:20:18;;;;;;;;;22.50;21.25;;;;;12.32;56.49;97275.75;6092359;22;102527;-80
2020/12/30 16:22:48;;;;;;;;;18.75;18.00;;;;;12.30;56.48;97253.50;5983835;22;109194;-80
2020/12/30 16:25:21;;;;;;;;;19.25;16.75;;;;;12.32;56.10;97274.94;5861032;22;102305;-80
2020/12/30 16:27:55;;;;;;;;;10.00;10.00;;;;;12.32;55.96;97258.69;6069253;22;102428;-80
2020/12/30 16:30:23;;;;;;;;;21.50;17.50;;;;;12.33;56.73;97274.72;6141218;22;102074;-80
2020/12/30 16:32:50;;;;;;;;;26.00;20.75;;;;;12.29;55.58;97259.97;6019669;22;103186;-80
2020/12/30 16:35:17;;;;;;;;;22.25;19.50;;;;;12.30;56.55;97266.22;6069606;22;102319;-80
2020/12/30 16:37:44;;;;;;;;;24.25;19.25;;;;;12.26;56.43;97260.47;6072281;22;102357;-81
2020/12/30 16:40:11;;;;;;;;;22.00;17.50;;;;;12.23;56.48;97282.66;6037167;22;102581;-80
2020/12/30 16:42:38;;;;;;;;;25.50;21.50;;;;;12.25;56.24;97261.53;6100672;22;103148;-81
2020/12/30 16:45:09;;;;;;;;;20.25;18.50;;;;;12.25;56.29;97255.28;6015551;22;103670;-80
2020/12/30 16:47:39;;;;;;;;;23.75;17.50;;;;;12.24;56.41;97265.34;6093373;22;102329;-80
2020/12/30 16:50:09;;;;;;;;;23.75;21.25;;;;;12.24;56.15;97267.22;5967304;22;102423;-80
2020/12/30 16:52:37;;;;;;;;;26.25;24.25;;;;;12.20;55.92;97269.59;5886412;22;103666;-80
2020/12/30 16:55:11;;;;;;;;;21.25;17.50;;;;;12.24;55.81;97272.63;5865662;22;102492;-80
2020/12/30 16:57:40;;;;;;;;;24.00;21.50;;;;;12.23;55.72;97288.06;5916250;22;102428;-81
2020/12/30 17:00:09;;;;;;;;;24.25;21.00;;;;;12.22;56.35;97288.31;6120400;22;102383;-81
2020/12/30 17:02:40;;;;;;;;;24.75;21.50;;;;;12.19;56.54;97295.03;6131690;22;102833;-81
2020/12/30 17:05:43;;;;;;;;;;;;;;;;;;;;;
2020/12/30 17:08:19;;;;;;;;;25.25;22.00;;;;;12.16;56.11;97303.63;5662263;22;102438;-76
2020/12/30 17:15:06;;;;;;;;;30.40;25.40;;;;;12.17;55.71;97293.63;4546459;23;10343237;-75
2020/12/30 17:28:09;;;;;;;;;23.25;22.25;;;;;12.14;55.94;97284.09;4938426;27;102416;-75
2020/12/30 17:30:38;;;;;;;;;23.00;20.25;;;;;12.10;56.42;97277.53;4927396;27;102652;-75
2020/12/30 17:33:07;;;;;;;;;28.75;23.25;;;;;12.10;55.89;97271.28;4885374;28;103431;-74
2020/12/30 17:35:36;;;;;;;;;22.50;20.50;;;;;12.09;55.83;97297.56;4896889;27;102223;-80
2020/12/30 17:38:09;;;;;;;;;26.75;21.25;;;;;12.08;55.77;97304.03;4882181;27;102386;-80
2020/12/30 17:40:36;;;;;;;;;26.75;23.75;;;;;12.06;56.20;97293.47;4885288;27;103474;-80
2020/12/30 17:43:04;;;;;;;;;29.00;22.50;;;;;12.08;55.57;97304.03;4934743;27;103486;-80
2020/12/30 17:45:33;;;;;;;;;29.25;21.75;;;;;12.08;55.75;97312.16;4899857;27;103406;-75
2020/12/30 17:48:06;;;;;;;;;23.50;21.75;;;;;12.04;55.94;97311.00;4732448;28;107422;-75
2020/12/30 17:50:38;;;;;;;;;26.50;23.00;;;;;12.05;55.37;97307.25;4792154;27;102456;-75
2020/12/30 17:53:44;;;;;;;;;24.00;21.00;;;;;12.11;55.55;97316.28;4653393;28;109050;-74
2020/12/30 17:56:35;;;;;;;;;23.50;20.00;;;;;12.08;56.02;97309.44;4713283;27;103366;-75
2020/12/30 17:59:31;;;;;;;;;29.75;22.75;;;;;12.12;55.92;97313.31;4708000;28;102829;-75
2020/12/30 18:02:34;;;;;;;;;;;;;;;;;;;;;
2020/12/30 18:05:18;;;;;;;;;30.50;26.50;;;;;12.10;55.54;97320.06;4612486;28;107255;-75
2020/12/30 18:08:30;;;;;;;;;29.75;26.25;;;;;12.08;55.27;97329.25;4618452;28;102489;-75
2020/12/30 18:11:40;;;;;;;;;26.75;24.75;;;;;12.09;55.33;97324.66;4674268;28;102578;-75
2020/12/30 18:14:31;;;;;;;;;33.25;24.00;;;;;12.04;55.80;97305.59;4648164;28;103387;-75
2020/12/30 18:17:33;;;;;;;;;31.60;23.60;;;;;12.07;55.61;97326.75;4482480;28;1940215;-75
2020/12/30 18:20:06;;;;;;;;;26.25;24.00;;;;;12.01;55.48;97338.59;4085954;28;5139404;-75
2020/12/30 18:33:16;;;;;;;;;29.25;25.50;;;;;11.98;55.70;97347.19;4824538;27;103056;-76
2020/12/30 18:35:43;;;;;;;;;32.00;28.00;;;;;11.96;55.59;97344.72;4741880;28;102411;-81
2020/12/30 18:38:12;;;;;;;;;32.50;28.00;;;;;11.96;55.39;97350.16;4903944;28;103492;-82
2020/12/30 18:40:48;;;;;;;;;;;;;;;;;;;;;
2020/12/30 18:43:27;;;;;;;;;30.00;23.00;;;;;11.89;55.82;97335.06;4747835;28;103144;-81
2020/12/30 18:45:57;;;;;;;;;30.00;26.25;;;;;11.93;55.34;97347.09;4765325;27;103082;-81
2020/12/30 18:48:30;;;;;;;;;25.25;15.50;;;;;11.91;55.21;97365.47;4726246;28;104677;-81
2020/12/30 18:50:57;;;;;;;;;33.00;29.00;;;;;11.91;55.07;97341.09;4812369;28;102880;-82
2020/12/30 18:53:24;;;;;;;;;30.25;24.50;;;;;11.90;54.96;97352.97;4860409;28;102611;-80
2020/12/30 18:55:51;;;;;;;;;31.50;29.25;;;;;11.87;55.81;97342.63;4837369;27;103194;-81
2020/12/30 18:58:26;;;;;;;;;44.25;37.25;;;;;11.96;55.15;97341.19;4757291;28;103754;-86
2020/12/30 19:01:26;;;;;;;;;40.25;32.00;;;;;12.22;55.85;97362.31;4720205;28;102526;-86
2020/12/30 19:10:23;;;;;;;;;85.00;68.67;;;;;12.78;62.07;97375.00;4901041;27;103502;-75
2020/12/30 19:13:08;;;;;;;;;81.67;64.00;;;;;12.97;60.28;97364.72;4859608;28;103051;-79
2020/12/30 19:16:00;;;;;;;;;76.00;57.33;;;;;13.26;60.60;97379.88;4549096;28;5077495;-75
2020/12/30 19:18:33;;;;;;;;;80.00;61.67;;;;;13.39;60.79;97368.69;4696871;28;102865;-73
2020/12/30 19:20:59;;;;;;;;;62.50;48.25;;;;;13.49;61.36;97373.44;4868383;28;102197;-73
2020/12/30 19:23:26;;;;;;;;;62.50;49.50;;;;;13.58;61.18;97368.41;4871970;28;103106;-73
2020/12/30 19:25:53;;;;;;;;;61.75;49.75;;;;;13.63;61.32;97377.47;4894375;28;104491;-73
2020/12/30 19:28:35;;;;;;;;;72.33;54.33;;;;;13.79;60.13;97370.31;4868715;28;102580;-78
2020/12/30 19:31:05;;;;;;;;;85.33;68.67;;;;;13.96;59.59;97384.66;4826620;28;102673;-74
2020/12/30 19:33:32;;;;;;;;;77.67;58.67;;;;;14.12;59.38;97375.66;4762621;28;104246;-78
2020/12/30 19:36:09;;;;;;;;;70.00;53.75;;;;;14.16;59.14;97376.78;4856166;28;107697;-87
2020/12/30 19:38:36;;;;;;;;;69.00;54.00;;;;;14.21;60.23;97376.84;4853086;28;102452;-81
2020/12/30 19:41:23;;;;;;;;;73.00;55.67;;;;;14.40;59.58;97390.16;4812106;28;102309;-85
2020/12/30 19:43:52;;;;;;;;;79.67;62.67;;;;;14.48;58.82;97386.97;4802304;28;102833;-78
2020/12/30 19:46:23;;;;;;;;;77.33;57.33;;;;;14.41;58.90;97392.59;4861849;28;103469;-79
2020/12/30 19:48:50;;;;;;;;;79.33;60.67;;;;;14.25;59.04;97377.16;4846527;28;103494;-79
2020/12/30 19:51:16;;;;;;;;;80.33;65.33;;;;;14.19;58.25;97384.44;4799740;28;102531;-79
2020/12/30 19:53:45;;;;;;;;;79.67;61.33;;;;;14.13;58.17;97390.06;4833603;28;102625;-79
2020/12/30 19:56:13;;;;;;;;;82.67;61.67;;;;;14.07;58.63;97396.50;4841855;28;102293;-79
2020/12/30 19:58:41;;;;;;;;;77.00;59.00;;;;;14.03;58.23;97404.34;4833760;28;102430;-79
2020/12/30 20:01:09;;;;;;;;;73.75;55.00;;;;;13.96;58.16;97400.19;4837334;28;103486;-79
2020/12/30 20:03:36;;;;;;;;;70.67;54.67;;;;;13.93;57.37;97409.66;4844999;28;102436;-79
2020/12/30 20:06:03;;;;;;;;;75.75;55.75;;;;;13.90;57.29;97414.78;4787871;28;103282;-79
2020/12/30 20:08:30;;;;;;;;;73.00;57.50;;;;;13.90;56.98;97407.44;4755941;28;104923;-79
2020/12/30 20:10:57;;;;;;;;;68.50;52.50;;;;;13.82;56.70;97405.94;4749719;28;103089;-79
2020/12/30 20:13:24;;;;;;;;;67.50;53.00;;;;;13.80;57.25;97418.16;4747901;28;103700;-79
2020/12/30 20:15:50;;;;;;;;;74.75;55.00;;;;;13.80;56.55;97434.47;4765882;28;104044;-79
2020/12/30 20:18:17;;;;;;;;;68.25;52.25;;;;;13.75;56.19;97418.09;4723534;28;103599;-79
2020/12/30 20:20:44;;;;;;;;;66.50;50.50;;;;;13.71;55.84;97430.53;4734725;28;104024;-80
2020/12/30 20:23:11;;;;;;;;;72.25;53.50;;;;;13.68;55.92;97425.59;4706465;28;103994;-80
2020/12/30 20:25:38;;;;;;;;;64.75;49.00;;;;;13.62;56.61;97421.97;4710929;28;103858;-79
2020/12/30 20:28:06;;;;;;;;;62.50;51.00;;;;;13.63;56.38;97439.09;4718819;28;103132;-79
2020/12/30 20:30:38;;;;;;;;;67.00;51.50;;;;;13.61;55.70;97438.50;4690240;28;103620;-79
2020/12/30 20:33:16;;;;;;;;;65.50;49.75;;;;;13.55;55.64;97447.69;4724972;28;103702;-79
2020/12/30 20:35:44;;;;;;;;;70.75;50.00;;;;;13.52;55.45;97437.28;4737431;28;103652;-79
2020/12/30 20:38:10;;;;;;;;;64.50;48.50;;;;;13.53;55.41;97444.38;4724317;28;104036;-79
2020/12/30 20:40:38;;;;;;;;;62.75;48.75;;;;;13.51;55.56;97449.25;4732936;28;103849;-79
2020/12/30 20:43:07;;;;;;;;;66.00;49.00;;;;;13.54;55.51;97462.31;4721967;28;103007;-79
2020/12/30 20:45:38;;;;;;;;;64.25;49.25;;;;;13.49;55.08;97454.09;4709128;28;104314;-79
2020/12/30 20:48:15;;;;;;;;;63.75;49.00;;;;;13.50;55.17;97472.88;4712262;28;103210;-79
2020/12/30 20:50:48;;;;;;;;;59.25;47.50;;;;;13.49;55.09;97464.94;4709971;28;103146;-79
2020/12/30 20:53:18;;;;;;;;;65.00;49.75;;;;;13.49;55.72;97456.81;4730021;28;104643;-79
2020/12/30 20:55:45;;;;;;;;;62.75;47.50;;;;;13.44;56.11;97456.72;4718253;28;103898;-79
2020/12/30 20:58:12;;;;;;;;;59.25;46.50;;;;;13.47;55.39;97467.06;4717342;28;103076;-79
2020/12/30 21:00:39;;;;;;;;;66.00;48.75;;;;;13.45;55.83;97469.22;4732319;28;103682;-79
2020/12/30 21:03:07;;;;;;;;;63.75;47.25;;;;;13.43;55.81;97477.63;4715984;28;102960;-79
2020/12/30 21:05:40;;;;;;;;;65.75;46.25;;;;;13.38;55.92;97472.94;4715535;28;105086;-79
2020/12/30 21:08:12;;;;;;;;;63.75;50.25;;;;;13.37;56.18;97475.91;4732563;28;103687;-79
2020/12/30 21:10:44;;;;;;;;;61.75;47.00;;;;;13.42;56.54;97469.75;4740854;28;103641;-79
2020/12/30 21:13:13;;;;;;;;;60.00;46.25;;;;;13.39;56.00;97471.88;4736841;28;104815;-79
2020/12/30 21:15:40;;;;;;;;;57.75;46.00;;;;;13.36;55.90;97483.22;4728075;28;104496;-75
2020/12/30 21:18:07;;;;;;;;;56.75;46.50;;;;;13.38;55.98;97491.94;4714679;28;103865;-75
2020/12/30 21:20:34;;;;;;;;;65.25;48.50;;;;;13.38;56.85;97491.94;4709848;28;103795;-75
2020/12/30 21:23:01;;;;;;;;;60.50;46.50;;;;;13.33;56.50;97491.84;4735222;28;103873;-75
2020/12/30 21:25:30;;;;;;;;;60.50;46.00;;;;;13.37;56.10;97492.19;4739142;28;103906;-75
2020/12/30 21:28:00;;;;;;;;;59.25;45.50;;;;;13.32;57.15;97495.66;4740537;28;103725;-75
2020/12/30 21:30:27;;;;;;;;;58.25;46.00;;;;;13.31;56.27;97491.28;4709085;28;102976;-76
2020/12/30 21:32:54;;;;;;;;;63.50;45.00;;;;;13.34;56.99;97509.78;4731382;28;104472;-76
2020/12/30 21:35:21;;;;;;;;;54.75;44.00;;;;;13.33;55.95;97499.97;4726556;28;109825;-75
2020/12/30 21:37:49;;;;;;;;;53.25;43.00;;;;;13.31;56.82;97507.56;4718784;28;103062;-75
2020/12/30 21:40:18;;;;;;;;;58.75;45.25;;;;;13.31;56.10;97507.56;4743059;28;103281;-75
2020/12/30 21:42:46;;;;;;;;;61.00;45.00;;;;;13.24;56.54;97500.63;4736879;28;103843;-75
2020/12/30 21:45:13;;;;;;;;;52.50;42.25;;;;;13.25;56.77;97505.81;4762271;28;104660;-78
2020/12/30 21:47:40;;;;;;;;;60.50;46.25;;;;;13.25;56.22;97508.53;4813277;28;103000;-78
2020/12/30 21:50:07;;;;;;;;;54.50;43.00;;;;;13.27;56.16;97528.13;4829933;28;102738;-79
2020/12/30 21:52:34;;;;;;;;;58.50;44.75;;;;;13.21;56.47;97520.97;4820705;28;103001;-78
2020/12/30 21:55:01;;;;;;;;;54.50;44.00;;;;;13.24;57.23;97528.59;4848341;28;105206;-78
2020/12/30 21:57:27;;;;;;;;;54.75;44.00;;;;;13.18;56.41;97523.34;4818521;28;103254;-78
2020/12/30 21:59:54;;;;;;;;;49.75;40.25;;;;;13.20;56.31;97526.63;4844744;28;102970;-78
2020/12/30 22:02:21;;;;;;;;;53.00;43.25;;;;;13.19;57.32;97520.34;4847760;28;103023;-78
2020/12/30 22:04:48;;;;;;;;;52.00;40.00;;;;;13.17;57.14;97527.13;4822419;28;104075;-78
2020/12/30 22:07:15;;;;;;;;;52.50;42.25;;;;;13.13;56.79;97521.34;4833673;28;105108;-78
2020/12/30 22:09:42;;;;;;;;;54.00;43.00;;;;;13.17;56.34;97537.97;4835204;28;103039;-78
2020/12/30 22:12:09;;;;;;;;;44.25;36.00;;;;;13.16;56.80;97541.75;4831282;28;103134;-78
2020/12/30 22:14:36;;;;;;;;;61.25;44.50;;;;;13.15;57.30;97529.25;4816177;28;105744;-77
2020/12/30 22:17:03;;;;;;;;;53.00;43.25;;;;;13.12;57.87;97543.31;4814356;28;102895;-77
2020/12/30 22:19:29;;;;;;;;;55.25;44.50;;;;;13.10;56.83;97548.97;4843379;28;102827;-77
2020/12/30 22:21:56;;;;;;;;;56.00;43.00;;;;;13.05;56.97;97542.59;4834124;28;103767;-77
2020/12/30 22:24:23;;;;;;;;;58.00;43.00;;;;;13.04;56.83;97544.50;4839516;28;104312;-77
2020/12/30 22:26:50;;;;;;;;;61.00;47.00;;;;;13.05;57.64;97550.75;4810208;28;103033;-79
2020/12/30 22:29:17;;;;;;;;;57.50;46.25;;;;;13.15;57.36;97535.50;4819841;28;103557;-79
2020/12/30 22:31:43;;;;;;;;;63.75;47.25;;;;;13.20;56.95;97538.31;4828754;28;103056;-78
2020/12/30 22:34:10;;;;;;;;;57.25;45.25;;;;;13.26;56.42;97540.06;4812867;28;105831;-77
2020/12/30 22:36:38;;;;;;;;;48.25;28.25;;;;;13.37;57.31;97552.72;4821717;28;103287;-78
2020/12/30 22:39:09;;;;;;;;;70.50;52.75;;;;;13.42;57.11;97546.56;4811627;28;102913;-78
2020/12/30 22:41:36;;;;;;;;;75.33;56.00;;;;;13.47;56.10;97552.09;4836483;28;103691;-80
2020/12/30 22:44:03;;;;;;;;;82.00;60.33;;;;;13.57;55.98;97546.84;4814857;28;104465;-78
2020/12/30 22:46:30;;;;;;;;;76.00;55.67;;;;;13.57;56.66;97556.88;4826095;28;103706;-77
2020/12/30 22:48:57;;;;;;;;;76.33;55.00;;;;;13.52;56.91;97560.31;4832593;28;102827;-76
2020/12/30 22:51:24;;;;;;;;;76.00;55.00;;;;;13.47;55.93;97554.81;4823766;28;103073;-77